Pagina principale
METAR-TAF:

METAR-TAF

Aeroporti :

La Chaux-de-Fonds, Svizzera

latitudine: 47-05-03N, longitudine: 006-47-37E, altezza: 1027 m

Osservazione

Il bollettino è stato emesso 34 minuti fa, alle 15:20 UTC
Vento 8 kt da sud-est, variando fra est e sud
Temperature 26°C
Umidità 20%
Pressione 1016 hPa
Visibilità 10 km o più
nessuna nube inferiore a 1500 m e nessun cumulonembo

METAR: LSGC 131520Z 14008KT 100V180 CAVOK 26/01 Q1016 CAUTION HIGH DENSITY ALTITUDE

Ora: 17:54 (15:54 UTC)

Previsione

Il bollettino è stato emesso 1 ora e 29 minuti fa, alle 14:25 UTC
Previsione valida dal 13 alle 15 UTC al 13 alle 24 UTC
Vento 8 kt da est
Visibilità 10 km o più
nessuna nube inferiore a 1500 m e nessun cumulonembo

TAF: LSGC 131425Z 1315/1324 10008KT CAVOK

Osservazioni e previsioni meteorologiche di più di 4000 aeroporti (messaggi METAR e TAF).

Le stazioni disponibili sono rappresentate dai dischi gialli e rossi sulla carta.

Puntare il mouse per vedere il nome della stazione.

Clicca sopra per visualizzare le osservazioni e previsioni meteorologiche.

Per cambiare la mappa : fare clic sui pulsanti verdi con una croce nera per ingrandire, il pulsante verde con un trattino per diminuire, o sulla freccia verde per le mappe adiacenti.


METAR-TAF: